Aérodrome :
LOGIN :

S'inscrire | Disclaimer

   EN    FR    IT 

 










Légende :    VFR   VFR Marginal   IFR   IFR Intensif   IFR Très Intensif
Visi : 
Plafond : 
>= 8 km
>= 3000ft
5 à 8 km
1000 à 3000 ft
1500m à 5 km
500 à 1000 ft
800 à 1500m
200 à 500 ft
< 800m
< 200 ft
Symboles :   Orages  Brouillard  Fortes neiges  Fortes précipitations  Vent > 20 kt
SIGMETs :   Divers  Orages  Givrage  Turbulence  Onde Orograph.  Cendres Volcan.






- Altitude de l'aérodrome : 479 ft
- Code IATA : DOL


LFRG - Deauville

DERNIER METAR :
  • 231130Z AUTO 24017KT 210V280 9999 OVC009 12/11 Q1023 TEMPO 3000 RADZ BKN025 BECMG 23020G35KT

METARs EXPIRÉS :
  • 231100Z AUTO 25020G32KT 9999 OVC012 12/10 Q1023 TEMPO 3000 RADZ BKN005
  • 231030Z AUTO 24019G29KT 210V270 9999 OVC013 12/11 Q1023 TEMPO 3000 RADZ BKN005
  • 231000Z AUTO 24016KT 9999 -DZ OVC009 12/11 Q1022 TEMPO 3000 RADZ BKN020 BECMG 23020G35KT
  • 230930Z AUTO 25014KT 200V270 7000 DZ OVC012 12/10 Q1023 TEMPO 3000 RADZ BKN020 BECMG 23020G35KT
  • 230900Z AUTO 22017KT 190V250 9999 OVC012 12/10 Q1022 TEMPO 3000 RADZ BKN020 BECMG 23020G35KT

TAF TAF LFRG
Valide du 23 à 12h jusqu'au 23 à 21h UTC


231100Z 2312/2321 23020G35KT 9999 OVC012
TEMPO 2312/2321 3000 RADZ BKN005
PROB40
TEMPO 2312/2315 BKN025
BECMG 2315/2317 26015G25KT
BECMG 2318/2320 27010KT
PROB40
TEMPO 2319/2321 BKN025
ATIS : +33 2 31 65 65 36



MET'MAP, la Météo Aéronautique d'un coup d'oeil ! - Copyright ORBIFLY Décembre 2007 - Disclaimer

ORBIFLY MET'MAP TEAM :

Programmation & Développement : Alexandra Zaïnal
Sur une idée originale de : Baudouin d'Aumeries
Assistance à la programmation : Marc-Olivier Méhu
Soutien technique & logistique : Manuel Goepfert

Contact : metmap@orbifly.com




SOURCES & CREDITS :

   NOAA